createdAt,value
2022-10-01T00:01:18.769Z,98700.34
2022-10-01T00:03:47.561Z,98720.44
2022-10-01T00:06:17.698Z,98712.06
2022-10-01T00:08:48.573Z,98714.50
2022-10-01T00:11:18.982Z,98727.97
2022-10-01T00:13:46.270Z,98711.47
2022-10-01T00:16:23.112Z,98738.88
2022-10-01T00:18:50.908Z,98718.19
2022-10-01T00:21:29.929Z,98715.72
2022-10-01T00:24:04.743Z,98718.22
2022-10-01T00:26:35.422Z,98707.88
2022-10-01T00:29:05.976Z,98697.94
2022-10-01T00:31:33.767Z,98705.44
2022-10-01T00:34:05.503Z,98689.84
2022-10-01T00:36:33.681Z,98703.09
2022-10-01T00:39:01.064Z,98694.41
2022-10-01T00:41:34.377Z,98701.81
2022-10-01T00:44:36.170Z,98700.66
2022-10-01T00:47:28.487Z,98697.75
2022-10-01T00:50:11.712Z,98692.88
2022-10-01T00:52:42.089Z,98692.72
2022-10-01T00:55:17.616Z,98706.59
2022-10-01T00:57:45.482Z,98699.66
2022-10-01T01:00:14.111Z,98699.13
2022-10-01T01:02:41.807Z,98703.88
2022-10-01T01:05:10.057Z,98680.00
2022-10-01T01:07:37.028Z,98703.38
2022-10-01T01:10:06.401Z,98706.28
2022-10-01T01:12:57.863Z,98695.78
2022-10-01T01:15:41.867Z,98673.72
2022-10-01T01:18:43.351Z,98695.94
2022-10-01T01:21:27.437Z,98703.53
2022-10-01T01:24:03.919Z,98686.16
2022-10-01T01:26:56.972Z,98695.44
2022-10-01T01:29:27.691Z,98704.75
2022-10-01T01:32:02.506Z,98695.75
2022-10-01T01:34:33.339Z,98687.59
2022-10-01T01:37:13.185Z,98679.75
2022-10-01T01:39:45.173Z,98696.59
2022-10-01T01:42:21.369Z,98687.09
2022-10-01T01:44:50.996Z,98686.31
2022-10-01T01:47:21.894Z,98675.81
2022-10-01T01:49:50.949Z,98620.28
2022-10-01T01:52:18.132Z,98625.31
2022-10-01T01:54:50.059Z,98649.81
2022-10-01T01:57:19.728Z,98643.34
2022-10-01T01:59:47.186Z,98646.38
2022-10-01T02:02:19.040Z,98639.00
2022-10-01T02:04:56.406Z,98630.56
2022-10-01T02:08:21.528Z,98648.44
2022-10-01T02:11:14.986Z,98639.78
2022-10-01T02:13:50.625Z,98637.28
2022-10-01T02:16:26.349Z,98628.91
2022-10-01T02:19:05.673Z,98626.25
2022-10-01T02:21:41.932Z,98630.66
2022-10-01T02:24:36.230Z,98637.41
2022-10-01T02:27:08.935Z,98635.22
2022-10-01T02:29:38.008Z,98616.78
2022-10-01T02:32:05.268Z,98621.34
2022-10-01T02:34:33.172Z,98637.28
2022-10-01T02:37:04.353Z,98633.59
2022-10-01T02:39:33.111Z,98631.25
2022-10-01T02:42:00.694Z,98613.53
2022-10-01T02:44:40.243Z,98630.25
2022-10-01T02:47:21.630Z,98617.88
2022-10-01T02:49:49.498Z,98607.13
2022-10-01T02:52:59.435Z,98619.53
2022-10-01T02:55:30.420Z,98617.19
2022-10-01T02:57:57.643Z,98612.41
2022-10-01T03:00:26.937Z,98617.31
2022-10-01T03:02:53.817Z,98600.53
2022-10-01T03:05:21.169Z,98615.75
2022-10-01T03:07:48.662Z,98619.91
2022-10-01T03:10:16.295Z,98620.31
2022-10-01T03:12:46.493Z,98598.63
2022-10-01T03:15:16.389Z,98597.81
2022-10-01T03:17:43.212Z,98600.38
2022-10-01T03:20:12.004Z,98611.47
2022-10-01T03:22:39.099Z,98598.59
2022-10-01T03:25:06.328Z,98613.75
2022-10-01T03:27:33.170Z,98622.72
2022-10-01T03:29:59.923Z,98616.63
2022-10-01T03:32:26.767Z,98606.59
2022-10-01T03:34:53.620Z,98597.56
2022-10-01T03:37:20.401Z,98581.44
2022-10-01T03:39:47.203Z,98594.13
2022-10-01T03:42:14.450Z,98597.94
2022-10-01T03:44:41.277Z,98603.25
2022-10-01T03:47:08.144Z,98613.22
2022-10-01T03:49:35.445Z,98571.72
2022-10-01T03:52:04.732Z,98585.41
2022-10-01T03:54:31.555Z,98569.50
2022-10-01T03:56:58.724Z,98582.81
2022-10-01T03:59:27.210Z,98570.09
2022-10-01T04:01:54.728Z,98582.97
2022-10-01T04:04:21.644Z,98570.09
2022-10-01T04:06:48.399Z,98577.56
2022-10-01T04:09:15.167Z,98581.81
2022-10-01T04:11:41.961Z,98559.84
2022-10-01T04:14:09.043Z,98577.13
2022-10-01T04:16:36.205Z,98564.34
2022-10-01T04:19:04.757Z,98563.34
2022-10-01T04:21:31.887Z,98559.31
2022-10-01T04:23:59.662Z,98563.50
2022-10-01T04:26:26.981Z,98559.31
2022-10-01T04:28:53.744Z,98553.72
2022-10-01T04:31:26.644Z,98559.63
2022-10-01T04:33:56.410Z,98566.22
2022-10-01T04:36:24.904Z,98566.19
2022-10-01T04:39:00.720Z,98558.63
2022-10-01T04:41:30.671Z,98550.19
2022-10-01T04:43:59.335Z,98539.25
2022-10-01T04:46:26.314Z,98543.28
2022-10-01T04:48:53.175Z,98547.53
2022-10-01T04:51:19.988Z,98559.56
2022-10-01T04:53:47.035Z,98564.94
2022-10-01T04:56:13.825Z,98577.66
2022-10-01T04:58:41.271Z,98564.22
2022-10-01T05:01:08.152Z,98542.84
2022-10-01T05:03:35.370Z,98551.56
2022-10-01T05:06:02.141Z,98535.19
2022-10-01T05:08:30.046Z,98555.38
2022-10-01T05:11:00.275Z,98562.59
2022-10-01T05:13:29.925Z,98565.94
2022-10-01T05:15:56.904Z,98560.41
2022-10-01T05:18:23.745Z,98558.56
2022-10-01T05:20:50.512Z,98548.53
2022-10-01T05:23:17.257Z,98561.06
2022-10-01T05:25:46.684Z,98541.06
2022-10-01T05:28:15.915Z,98557.06
2022-10-01T05:30:45.630Z,98568.69
2022-10-01T05:33:12.466Z,98566.03
2022-10-01T05:35:41.319Z,98554.91
2022-10-01T05:38:08.389Z,98559.47
2022-10-01T05:40:35.385Z,98535.09
2022-10-01T05:43:04.240Z,98525.72
2022-10-01T05:45:32.273Z,98552.25
2022-10-01T05:48:05.938Z,98548.78
2022-10-01T05:50:36.172Z,98546.81
2022-10-01T05:53:03.210Z,98550.81
2022-10-01T05:55:34.685Z,98551.03
2022-10-01T05:58:10.528Z,98557.28
2022-10-01T06:00:39.843Z,98551.41
2022-10-01T06:03:07.238Z,98544.13
2022-10-01T06:05:36.185Z,98508.25
2022-10-01T06:08:09.714Z,98509.59
2022-10-01T06:10:37.029Z,98510.22
2022-10-01T06:13:05.599Z,98497.19
2022-10-01T06:15:37.679Z,98514.69
2022-10-01T06:18:06.831Z,98507.16
2022-10-01T06:20:34.573Z,98485.13
2022-10-01T06:23:01.808Z,98494.75
2022-10-01T06:25:29.678Z,98493.00
2022-10-01T06:27:59.413Z,98487.69
2022-10-01T06:30:32.336Z,98472.25
2022-10-01T06:33:07.575Z,98471.19
2022-10-01T06:35:39.619Z,98473.72
2022-10-01T06:38:06.635Z,98439.63
2022-10-01T06:40:33.480Z,98464.31
2022-10-01T06:43:00.377Z,98460.16
2022-10-01T06:45:29.226Z,98463.88
2022-10-01T06:48:03.705Z,98467.66
2022-10-01T06:50:32.025Z,98465.81
2022-10-01T06:52:59.720Z,98463.16
2022-10-01T06:55:33.693Z,98459.41
2022-10-01T06:58:04.909Z,98450.22
2022-10-01T07:00:35.116Z,98448.69
2022-10-01T07:03:06.404Z,98442.53
2022-10-01T07:05:33.192Z,98450.44
2022-10-01T07:08:00.153Z,98459.16
2022-10-01T07:10:26.994Z,98465.84
2022-10-01T07:12:53.818Z,98466.59
2022-10-01T07:15:22.839Z,98458.22
2022-10-01T07:17:51.475Z,98444.38
2022-10-01T07:20:20.554Z,98473.09
2022-10-01T07:22:48.876Z,98466.84
2022-10-01T07:25:16.228Z,98472.75
2022-10-01T07:27:43.498Z,98467.75
2022-10-01T07:30:11.023Z,98466.75
2022-10-01T07:32:37.870Z,98462.16
2022-10-01T07:35:05.925Z,98449.13
2022-10-01T07:37:32.730Z,98468.94
2022-10-01T07:40:01.979Z,98463.56
2022-10-01T07:42:31.301Z,98453.97
2022-10-01T07:44:58.052Z,98445.09
2022-10-01T07:47:24.958Z,98435.19
2022-10-01T07:49:51.715Z,98410.66
2022-10-01T07:52:18.498Z,98443.84
2022-10-01T07:54:45.321Z,98427.16
2022-10-01T07:57:12.332Z,98436.00
2022-10-01T07:59:40.853Z,98456.66
2022-10-01T08:02:18.952Z,98454.88
2022-10-01T08:05:04.124Z,98447.09
2022-10-01T08:07:32.000Z,98438.84
2022-10-01T08:09:58.761Z,98448.88
2022-10-01T08:12:30.335Z,98450.28
2022-10-01T08:14:57.134Z,98453.44
2022-10-01T08:17:28.526Z,98433.94
2022-10-01T08:19:56.297Z,98433.56
2022-10-01T08:22:23.057Z,98425.78
2022-10-01T08:24:49.819Z,98439.13
2022-10-01T08:27:16.693Z,98456.94
2022-10-01T08:29:43.570Z,98457.22
2022-10-01T08:32:10.992Z,98427.97
2022-10-01T08:34:37.788Z,98448.13
2022-10-01T08:37:04.644Z,98451.66
2022-10-01T08:39:31.526Z,98454.25
2022-10-01T08:42:19.349Z,98468.72
2022-10-01T08:44:46.842Z,98459.53
2022-10-01T08:47:38.946Z,98469.38
2022-10-01T08:50:41.173Z,98445.06
2022-10-01T08:53:16.759Z,98455.22
2022-10-01T08:55:45.348Z,98447.28
2022-10-01T08:58:21.928Z,98441.44
2022-10-01T09:00:49.978Z,98460.44
2022-10-01T09:03:17.876Z,98459.78
2022-10-01T09:06:34.979Z,98462.97
2022-10-01T09:09:35.560Z,98473.16
2022-10-01T09:12:44.972Z,98472.97
2022-10-01T09:15:51.943Z,98448.72
2022-10-01T09:18:29.745Z,98468.63
2022-10-01T09:20:58.928Z,98468.03
2022-10-01T09:23:42.482Z,98439.84
2022-10-01T09:26:12.330Z,98474.72
2022-10-01T09:28:41.669Z,98472.25
2022-10-01T09:31:18.754Z,98471.66
2022-10-01T09:34:03.051Z,98475.56
2022-10-01T09:37:18.951Z,98474.56
2022-10-01T09:40:17.688Z,98477.63
2022-10-01T09:42:44.649Z,98473.63
2022-10-01T09:45:15.905Z,98473.09
2022-10-01T09:47:51.392Z,98469.38
2022-10-01T09:50:41.270Z,98489.00
2022-10-01T09:53:18.303Z,98502.38
2022-10-01T09:55:54.588Z,98492.00
2022-10-01T09:58:25.122Z,98478.94
2022-10-01T10:00:53.850Z,98500.59
2022-10-01T10:03:30.752Z,98496.59
2022-10-01T10:06:01.812Z,98495.97
2022-10-01T10:08:34.074Z,98486.72
2022-10-01T10:11:06.774Z,98490.53
2022-10-01T10:13:40.990Z,98501.06
2022-10-01T10:16:21.847Z,98505.34
2022-10-01T10:18:53.404Z,98483.38
2022-10-01T10:22:00.570Z,98510.16
2022-10-01T10:24:33.687Z,98504.22
2022-10-01T10:27:05.106Z,98519.22
2022-10-01T10:29:35.362Z,98498.66
2022-10-01T10:32:26.445Z,98516.00
2022-10-01T10:35:02.699Z,98516.09
2022-10-01T10:37:35.908Z,98510.59
2022-10-01T10:40:05.407Z,98505.91
2022-10-01T10:42:33.293Z,98525.47
2022-10-01T10:45:03.531Z,98515.44
2022-10-01T10:47:32.190Z,98516.84
2022-10-01T10:50:06.037Z,98511.16
2022-10-01T10:52:36.685Z,98526.06
2022-10-01T10:55:33.075Z,98513.28
2022-10-01T10:58:14.839Z,98497.72
2022-10-01T11:00:50.391Z,98492.16
2022-10-01T11:03:21.943Z,98509.94
2022-10-01T11:05:52.026Z,98487.63
2022-10-01T11:08:24.961Z,98506.09
2022-10-01T11:11:47.553Z,98500.59
2022-10-01T11:14:32.423Z,98503.00
2022-10-01T11:17:40.578Z,98468.63
2022-10-01T11:20:37.232Z,98491.03
2022-10-01T11:23:22.041Z,98485.28
2022-10-01T11:26:09.701Z,98490.28
2022-10-01T11:28:59.307Z,98484.94
2022-10-01T11:31:41.210Z,98489.19
2022-10-01T11:34:48.597Z,98494.56
2022-10-01T11:37:42.719Z,98490.25
2022-10-01T11:40:27.555Z,98492.84
2022-10-01T11:43:02.833Z,98501.84
2022-10-01T11:45:39.173Z,98501.41
2022-10-01T11:48:29.742Z,98490.81
2022-10-01T11:51:07.670Z,98520.97
2022-10-01T11:53:45.449Z,98516.22
2022-10-01T11:56:59.471Z,98505.66
2022-10-01T11:59:52.512Z,98525.75
2022-10-01T12:03:06.534Z,98524.19
2022-10-01T12:05:34.752Z,98514.91
2022-10-01T12:08:16.393Z,98526.59
2022-10-01T12:11:23.274Z,98524.00
2022-10-01T12:14:02.296Z,98513.25
2022-10-01T12:16:52.697Z,98535.31
2022-10-01T12:19:33.707Z,98533.44
2022-10-01T12:22:17.986Z,98517.72
2022-10-01T12:24:48.375Z,98534.50
2022-10-01T12:27:56.244Z,98538.06
2022-10-01T12:30:35.961Z,98538.28
2022-10-01T12:33:17.243Z,98531.22
2022-10-01T12:36:04.585Z,98532.13
2022-10-01T12:38:42.539Z,98552.28
2022-10-01T12:41:46.116Z,98552.41
2022-10-01T12:44:40.737Z,98535.38
2022-10-01T12:47:29.798Z,98560.69
2022-10-01T12:50:43.949Z,98563.59
2022-10-01T12:53:29.334Z,98558.50
2022-10-01T12:56:22.055Z,98564.13
2022-10-01T12:59:32.698Z,98573.75
2022-10-01T13:02:16.578Z,98562.63
2022-10-01T13:05:17.133Z,98563.00
2022-10-01T13:08:21.546Z,98570.16
2022-10-01T13:11:37.359Z,98581.09
2022-10-01T13:14:07.326Z,98569.41
2022-10-01T13:16:56.047Z,98566.13
2022-10-01T13:19:41.058Z,98563.75
2022-10-01T13:22:47.475Z,98574.06
2022-10-01T13:26:02.299Z,98568.03
2022-10-01T13:28:49.368Z,98553.13
2022-10-01T13:31:21.011Z,98563.97
2022-10-01T13:33:57.187Z,98529.69
2022-10-01T13:36:36.183Z,98547.63
2022-10-01T13:39:03.410Z,98561.16
2022-10-01T13:41:33.606Z,98551.38
2022-10-01T13:44:11.488Z,98545.94
2022-10-01T13:47:09.828Z,98532.41
2022-10-01T13:49:38.107Z,98534.78
2022-10-01T13:52:06.087Z,98554.88
2022-10-01T13:54:47.598Z,98553.00
2022-10-01T13:57:38.814Z,98547.88
2022-10-01T14:00:11.402Z,98554.13
2022-10-01T14:03:21.511Z,98557.38
2022-10-01T14:05:57.042Z,98543.63
2022-10-01T14:08:23.806Z,98559.44
2022-10-01T14:11:22.237Z,98534.03
2022-10-01T14:14:09.890Z,98550.88
2022-10-01T14:16:42.792Z,98552.34
2022-10-01T14:19:18.417Z,98535.69
2022-10-01T14:21:47.878Z,98551.38
2022-10-01T14:24:45.250Z,98539.41
2022-10-01T14:27:33.576Z,98553.84
2022-10-01T14:30:09.512Z,98544.50
2022-10-01T14:32:57.561Z,98549.19
2022-10-01T14:35:58.778Z,98544.97
2022-10-01T14:38:25.746Z,98551.22
2022-10-01T14:40:53.914Z,98535.81
2022-10-01T14:43:23.331Z,98544.63
2022-10-01T14:45:54.711Z,98546.72
2022-10-01T14:48:22.979Z,98541.56
2022-10-01T14:50:53.928Z,98545.25
2022-10-01T14:53:27.722Z,98532.56
2022-10-01T14:55:59.272Z,98536.59
2022-10-01T14:58:38.324Z,98534.06
2022-10-01T15:01:06.325Z,98527.44
2022-10-01T15:03:41.993Z,98536.34
2022-10-01T15:06:15.731Z,98557.44
2022-10-01T15:08:52.159Z,98566.00
2022-10-01T15:11:29.177Z,98560.34
2022-10-01T15:14:03.326Z,98572.88
2022-10-01T15:16:32.551Z,98549.56
2022-10-01T15:19:07.537Z,98565.78
2022-10-01T15:21:43.886Z,98546.28
2022-10-01T15:24:43.466Z,98568.31
2022-10-01T15:27:13.607Z,98559.56
2022-10-01T15:29:44.505Z,98574.88
2022-10-01T15:32:19.106Z,98573.44
2022-10-01T15:34:54.958Z,98573.53
2022-10-01T15:37:35.028Z,98572.03
2022-10-01T15:40:04.446Z,98576.69
2022-10-01T15:42:34.313Z,98571.81
2022-10-01T15:45:07.136Z,98582.22
2022-10-01T15:47:37.913Z,98578.38
2022-10-01T15:50:10.750Z,98581.94
2022-10-01T15:52:54.106Z,98587.50
2022-10-01T15:55:44.508Z,98598.38
2022-10-01T15:58:11.532Z,98603.38
2022-10-01T16:00:47.671Z,98600.03
2022-10-01T16:03:24.826Z,98600.38
2022-10-01T16:05:56.687Z,98610.84
2022-10-01T16:08:32.799Z,98614.34
2022-10-01T16:11:18.247Z,98597.25
2022-10-01T16:13:50.641Z,98624.69
2022-10-01T16:16:25.121Z,98626.56
2022-10-01T16:19:42.417Z,98632.38
2022-10-01T16:22:21.931Z,98642.06
2022-10-01T16:24:50.094Z,98645.97
2022-10-01T16:27:23.537Z,98662.63
2022-10-01T16:30:12.225Z,98635.44
2022-10-01T16:32:39.108Z,98646.38
2022-10-01T16:35:19.941Z,98659.28
2022-10-01T16:37:49.961Z,98660.97
2022-10-01T16:40:19.131Z,98667.63
2022-10-01T16:42:46.890Z,98646.28
2022-10-01T16:45:18.024Z,98656.06
2022-10-01T16:47:45.492Z,98655.25
2022-10-01T16:50:18.254Z,98670.31
2022-10-01T16:52:45.706Z,98658.03
2022-10-01T16:55:26.669Z,98669.94
2022-10-01T16:57:57.054Z,98668.16
2022-10-01T17:00:27.881Z,98675.13
2022-10-01T17:02:57.653Z,98680.22
2022-10-01T17:05:28.639Z,98691.41
2022-10-01T17:08:11.208Z,98699.94
2022-10-01T17:10:45.048Z,98704.41
2022-10-01T17:13:13.349Z,98697.03
2022-10-01T17:15:40.553Z,98710.75
2022-10-01T17:18:09.639Z,98721.38
2022-10-01T17:20:40.013Z,98723.19
2022-10-01T17:23:06.933Z,98717.22
2022-10-01T17:25:38.339Z,98723.47
2022-10-01T17:28:11.719Z,98723.28
2022-10-01T17:30:46.421Z,98727.03
2022-10-01T17:33:16.044Z,98726.00
2022-10-01T17:35:45.724Z,98737.25
2022-10-01T17:38:12.991Z,98727.44
2022-10-01T17:40:41.706Z,98730.75
2022-10-01T17:43:12.342Z,98744.13
2022-10-01T17:45:39.212Z,98749.22
2022-10-01T17:48:06.497Z,98736.28
2022-10-01T17:50:33.443Z,98742.97
2022-10-01T17:53:01.357Z,98764.53
2022-10-01T17:55:28.521Z,98755.06
2022-10-01T17:57:55.309Z,98768.69
2022-10-01T18:00:22.262Z,98753.44
2022-10-01T18:02:49.195Z,98769.31
2022-10-01T18:05:17.174Z,98771.63
2022-10-01T18:07:44.174Z,98773.09
2022-10-01T18:10:13.003Z,98785.91
2022-10-01T18:12:40.518Z,98793.72
2022-10-01T18:15:08.212Z,98793.69
2022-10-01T18:17:36.582Z,98787.84
2022-10-01T18:20:07.249Z,98800.78
2022-10-01T18:22:37.787Z,98792.00
2022-10-01T18:25:06.884Z,98815.91
2022-10-01T18:27:33.906Z,98810.59
2022-10-01T18:30:00.708Z,98804.53
2022-10-01T18:32:36.574Z,98799.41
2022-10-01T18:35:08.736Z,98816.00
2022-10-01T18:37:50.746Z,98812.09
2022-10-01T18:40:23.649Z,98821.81
2022-10-01T18:43:14.533Z,98826.47
2022-10-01T18:46:12.164Z,98834.41
2022-10-01T18:49:07.023Z,98847.22
2022-10-01T18:51:52.031Z,98853.28
2022-10-01T18:54:52.252Z,98865.38
2022-10-01T18:57:42.041Z,98872.88
2022-10-01T19:00:13.413Z,98872.03
2022-10-01T19:02:57.266Z,98861.97
2022-10-01T19:05:48.241Z,98892.88
2022-10-01T19:08:57.203Z,98896.31
2022-10-01T19:11:46.176Z,98908.25
2022-10-01T19:15:03.980Z,98897.56
2022-10-01T19:18:05.765Z,98919.25
2022-10-01T19:20:46.213Z,98914.28
2022-10-01T19:23:34.310Z,98913.19
2022-10-01T19:26:24.016Z,98926.06
2022-10-01T19:29:22.095Z,98922.63
2022-10-01T19:32:09.466Z,98936.91
2022-10-01T19:34:55.954Z,98937.09
2022-10-01T19:37:34.215Z,98938.69
2022-10-01T19:40:20.445Z,98943.91
2022-10-01T19:42:56.217Z,98945.09
2022-10-01T19:45:36.005Z,98949.28
2022-10-01T19:48:19.855Z,98958.88
2022-10-01T19:50:54.931Z,98952.53
2022-10-01T19:53:34.706Z,98966.94
2022-10-01T19:56:03.012Z,98961.09
2022-10-01T19:58:32.248Z,98969.53
2022-10-01T20:01:02.040Z,98976.34
2022-10-01T20:03:39.331Z,98970.47
2022-10-01T20:06:28.934Z,98979.03
2022-10-01T20:09:08.374Z,98985.06
2022-10-01T20:12:03.903Z,98981.91
2022-10-01T20:15:11.327Z,98990.66
2022-10-01T20:18:00.422Z,98996.97
2022-10-01T20:20:43.531Z,98986.00
2022-10-01T20:23:28.711Z,99000.41
2022-10-01T20:26:09.148Z,99007.47
2022-10-01T20:29:06.144Z,99004.97
2022-10-01T20:32:32.948Z,99007.84
2022-10-01T20:35:41.484Z,99007.94
2022-10-01T20:38:29.218Z,99007.28
2022-10-01T20:40:58.600Z,99013.16
2022-10-01T20:43:36.561Z,99026.22
2022-10-01T20:46:16.838Z,99021.47
2022-10-01T20:49:04.051Z,99036.56
2022-10-01T20:52:35.366Z,99037.75
2022-10-01T20:55:19.023Z,99033.25
2022-10-01T20:57:55.656Z,99028.53
2022-10-01T21:00:26.782Z,99032.81
2022-10-01T21:03:29.922Z,99048.81
2022-10-01T21:06:15.531Z,99048.06
2022-10-01T21:09:27.740Z,99048.63
2022-10-01T21:12:02.080Z,98976.81
2022-10-01T21:14:42.124Z,99054.69
2022-10-01T21:17:41.120Z,99047.13
2022-10-01T21:20:27.353Z,99067.78
2022-10-01T21:23:15.607Z,99074.47
2022-10-01T21:25:58.693Z,99071.22
2022-10-01T21:28:56.502Z,99073.81
2022-10-01T21:31:52.522Z,99079.00
2022-10-01T21:34:46.811Z,99085.91
2022-10-01T21:37:34.351Z,99082.09
2022-10-01T21:40:43.244Z,99087.94
2022-10-01T21:43:49.619Z,99076.31
2022-10-01T21:46:32.595Z,99104.13
2022-10-01T21:49:17.499Z,99094.06
2022-10-01T21:52:25.037Z,99111.94
2022-10-01T21:55:19.901Z,99124.69
2022-10-01T21:58:21.960Z,99102.06
2022-10-01T22:01:08.975Z,99140.00
2022-10-01T22:03:50.621Z,99132.09
2022-10-01T22:06:45.055Z,99142.22
2022-10-01T22:09:53.445Z,99139.16
2022-10-01T22:12:20.943Z,99117.38
2022-10-01T22:14:51.563Z,99143.50
2022-10-01T22:17:24.602Z,99134.53
2022-10-01T22:19:59.152Z,99154.94
2022-10-01T22:22:38.490Z,99167.00
2022-10-01T22:25:08.206Z,99158.63
2022-10-01T22:27:49.107Z,99168.34
2022-10-01T22:30:19.855Z,99181.34
2022-10-01T22:33:06.347Z,99175.22
2022-10-01T22:35:50.405Z,99179.59
2022-10-01T22:38:40.352Z,99161.13
2022-10-01T22:41:37.482Z,99169.03
2022-10-01T22:44:20.347Z,99185.13
2022-10-01T22:47:14.859Z,99187.66
2022-10-01T22:50:17.302Z,99188.50
2022-10-01T22:53:13.267Z,99185.66
2022-10-01T22:55:55.033Z,99184.28
2022-10-01T22:58:43.038Z,99198.25
2022-10-01T23:01:27.976Z,99196.56
2022-10-01T23:04:33.578Z,99187.91
2022-10-01T23:07:35.813Z,99188.59
2022-10-01T23:10:12.405Z,99192.84
2022-10-01T23:13:12.436Z,99187.50
2022-10-01T23:16:14.612Z,99185.13
2022-10-01T23:18:50.245Z,99198.81
2022-10-01T23:21:41.704Z,99200.41
2022-10-01T23:24:55.212Z,99201.31
2022-10-01T23:27:41.624Z,99193.78
2022-10-01T23:30:11.715Z,99208.31
2022-10-01T23:32:50.597Z,99197.38
2022-10-01T23:35:53.217Z,99200.09
2022-10-01T23:38:32.281Z,99207.13
2022-10-01T23:41:09.803Z,99214.34
2022-10-01T23:43:48.494Z,99217.88
2022-10-01T23:46:25.118Z,99223.94
2022-10-01T23:49:19.291Z,99241.72
2022-10-01T23:51:57.412Z,99240.38
2022-10-01T23:54:37.153Z,99211.59
2022-10-01T23:57:26.099Z,99233.69
